createdAt,value
2022-08-23T00:01:39.377Z,100317.55
2022-08-23T00:04:12.214Z,100328.89
2022-08-23T00:06:42.430Z,100333.30
2022-08-23T00:09:10.740Z,100337.70
2022-08-23T00:11:43.662Z,100334.21
2022-08-23T00:14:27.354Z,100332.94
2022-08-23T00:16:57.416Z,100331.28
2022-08-23T00:19:26.876Z,100330.23
2022-08-23T00:21:56.141Z,100334.34
2022-08-23T00:24:26.498Z,100334.40
2022-08-23T00:27:00.506Z,100327.55
2022-08-23T00:29:59.362Z,100319.61
2022-08-23T00:32:41.841Z,100317.56
2022-08-23T00:35:12.290Z,100319.32
2022-08-23T00:38:31.575Z,100319.60
2022-08-23T00:40:35.364Z,100332.52
2022-08-23T00:43:27.416Z,100341.99
2022-08-23T00:46:39.188Z,100341.18
2022-08-23T00:49:11.139Z,100343.48
2022-08-23T00:51:54.844Z,100345.70
2022-08-23T00:54:24.586Z,100348.09
2022-08-23T00:56:56.366Z,100352.55
2022-08-23T00:59:24.563Z,100360.17
2022-08-23T01:01:53.061Z,100363.47
2022-08-23T01:04:21.351Z,100356.91
2022-08-23T01:06:56.001Z,100367.45
2022-08-23T01:09:24.424Z,100376.16
2022-08-23T01:12:04.624Z,100382.63
2022-08-23T01:14:44.170Z,100387.40
2022-08-23T01:17:18.651Z,100381.89
2022-08-23T01:19:54.406Z,100380.10
2022-08-23T01:22:28.150Z,100383.16
2022-08-23T01:25:07.303Z,100379.13
2022-08-23T01:27:42.904Z,100387.34
2022-08-23T01:30:17.756Z,100387.14
2022-08-23T01:32:50.180Z,100371.14
2022-08-23T01:35:28.392Z,100389.52
2022-08-23T01:37:57.587Z,100388.20
2022-08-23T01:40:26.731Z,100383.55
2022-08-23T01:42:55.173Z,100381.77
2022-08-23T01:45:23.144Z,100386.09
2022-08-23T01:47:51.613Z,100386.54
2022-08-23T01:50:20.898Z,100382.43
2022-08-23T01:52:49.197Z,100380.27
2022-08-23T01:55:21.139Z,100360.15
2022-08-23T01:57:54.434Z,100368.19
2022-08-23T02:00:26.191Z,100381.21
2022-08-23T02:02:55.209Z,100382.36
2022-08-23T02:05:23.670Z,100388.48
2022-08-23T02:07:51.811Z,100395.20
2022-08-23T02:10:20.662Z,100398.05
2022-08-23T02:12:50.974Z,100399.85
2022-08-23T02:15:19.134Z,100392.76
2022-08-23T02:17:48.462Z,100371.33
2022-08-23T02:20:17.349Z,100370.27
2022-08-23T02:22:45.796Z,100386.61
2022-08-23T02:25:14.425Z,100393.77
2022-08-23T02:27:44.276Z,100391.64
2022-08-23T02:30:13.826Z,100374.73
2022-08-23T02:32:42.462Z,100362.73
2022-08-23T02:35:10.974Z,100360.64
2022-08-23T02:37:39.170Z,100362.04
2022-08-23T02:40:08.003Z,100359.66
2022-08-23T02:42:36.094Z,100348.33
2022-08-23T02:45:05.626Z,100348.86
2022-08-23T02:47:36.890Z,100343.22
2022-08-23T02:50:26.753Z,100353.74
2022-08-23T02:52:55.351Z,100351.16
2022-08-23T02:55:23.936Z,100322.59
2022-08-23T02:57:52.270Z,100353.13
2022-08-23T03:00:20.699Z,100347.02
2022-08-23T03:02:50.170Z,100351.74
2022-08-23T03:05:18.452Z,100347.23
2022-08-23T03:07:46.380Z,100343.67
2022-08-23T03:10:16.610Z,100342.52
2022-08-23T03:12:49.704Z,100341.50
2022-08-23T03:15:17.721Z,100344.86
2022-08-23T03:17:45.673Z,100334.61
2022-08-23T03:20:13.934Z,100336.66
2022-08-23T03:22:48.473Z,100348.05
2022-08-23T03:25:24.018Z,100350.88
2022-08-23T03:28:06.389Z,100340.45
2022-08-23T03:30:36.342Z,100353.97
2022-08-23T03:33:04.608Z,100351.99
2022-08-23T03:35:32.599Z,100351.20
2022-08-23T03:38:01.784Z,100345.73
2022-08-23T03:40:30.209Z,100339.00
2022-08-23T03:42:58.032Z,100333.00
2022-08-23T03:45:26.335Z,100328.45
2022-08-23T03:47:54.873Z,100325.00
2022-08-23T03:50:23.188Z,100329.98
2022-08-23T03:52:51.868Z,100331.31
2022-08-23T03:55:20.105Z,100333.90
2022-08-23T03:57:50.038Z,100335.52
2022-08-23T04:00:20.700Z,100334.20
2022-08-23T04:02:49.994Z,100321.86
2022-08-23T04:05:18.758Z,100321.34
2022-08-23T04:08:17.761Z,100322.58
2022-08-23T04:10:52.137Z,100321.98
2022-08-23T04:13:25.033Z,100321.33
2022-08-23T04:15:57.174Z,100317.75
2022-08-23T04:18:25.431Z,100315.61
2022-08-23T04:20:53.357Z,100317.96
2022-08-23T04:23:23.111Z,100322.94
2022-08-23T04:25:54.331Z,100323.91
2022-08-23T04:28:22.779Z,100343.16
2022-08-23T04:30:51.614Z,100348.73
2022-08-23T04:33:19.594Z,100352.48
2022-08-23T04:35:49.482Z,100352.98
2022-08-23T04:38:23.954Z,100354.77
2022-08-23T04:41:15.686Z,100354.34
2022-08-23T04:43:45.385Z,100361.05
2022-08-23T04:46:15.567Z,100361.32
2022-08-23T04:48:45.968Z,100360.67
2022-08-23T04:51:14.966Z,100363.29
2022-08-23T04:53:44.366Z,100361.06
2022-08-23T04:56:32.185Z,100367.38
2022-08-23T04:59:00.525Z,100374.20
2022-08-23T05:01:28.960Z,100374.27
2022-08-23T05:03:57.589Z,100378.77
2022-08-23T05:06:27.227Z,100376.09
2022-08-23T05:08:55.761Z,100381.20
2022-08-23T05:11:24.426Z,100382.36
2022-08-23T05:13:53.062Z,100380.52
2022-08-23T05:16:21.380Z,100390.52
2022-08-23T05:18:55.756Z,100396.88
2022-08-23T05:21:25.871Z,100407.28
2022-08-23T05:23:55.012Z,100408.92
2022-08-23T05:26:25.035Z,100408.78
2022-08-23T05:28:52.952Z,100410.75
2022-08-23T05:31:26.396Z,100413.09
2022-08-23T05:33:56.216Z,100411.83
2022-08-23T05:36:30.128Z,100407.90
2022-08-23T05:38:59.007Z,100411.04
2022-08-23T05:41:35.158Z,100410.76
2022-08-23T05:44:08.289Z,100410.38
2022-08-23T05:46:38.206Z,100422.48
2022-08-23T05:49:29.742Z,100427.05
2022-08-23T05:51:57.988Z,100438.52
2022-08-23T05:54:28.631Z,100439.23
2022-08-23T05:57:22.557Z,100441.02
2022-08-23T05:59:50.490Z,100444.14
2022-08-23T06:02:18.522Z,100446.28
2022-08-23T06:04:46.485Z,100444.58
2022-08-23T06:07:14.780Z,100432.43
2022-08-23T06:09:42.761Z,100448.37
2022-08-23T06:12:11.739Z,100449.22
2022-08-23T06:14:39.980Z,100449.77
2022-08-23T06:17:07.875Z,100454.05
2022-08-23T06:19:35.958Z,100451.45
2022-08-23T06:22:30.235Z,100454.02
2022-08-23T06:24:58.403Z,100460.92
2022-08-23T06:27:49.703Z,100463.95
2022-08-23T06:30:18.090Z,100466.04
2022-08-23T06:33:06.436Z,100463.70
2022-08-23T06:35:48.545Z,100466.05
2022-08-23T06:38:24.643Z,100465.02
2022-08-23T06:41:10.579Z,100469.80
2022-08-23T06:44:02.190Z,100470.10
2022-08-23T06:46:33.749Z,100476.60
2022-08-23T06:49:05.240Z,100477.42
2022-08-23T06:51:36.397Z,100474.14
2022-08-23T06:54:29.248Z,100472.77
2022-08-23T06:56:58.955Z,100475.31
2022-08-23T06:59:32.043Z,100476.47
2022-08-23T07:02:07.742Z,100480.31
2022-08-23T07:04:56.309Z,100476.55
2022-08-23T07:07:41.324Z,100472.77
2022-08-23T07:10:15.319Z,100462.57
2022-08-23T07:12:44.220Z,100461.08
2022-08-23T07:15:14.468Z,100457.66
2022-08-23T07:17:49.561Z,100462.08
2022-08-23T07:20:17.454Z,100461.73
2022-08-23T07:22:46.317Z,100466.34
2022-08-23T07:25:14.637Z,100467.55
2022-08-23T07:27:47.029Z,100470.34
2022-08-23T07:30:16.763Z,100476.23
2022-08-23T07:32:46.260Z,100475.82
2022-08-23T07:35:31.023Z,100471.56
2022-08-23T07:38:00.820Z,100464.42
2022-08-23T07:40:38.767Z,100458.06
2022-08-23T07:43:07.601Z,100457.84
2022-08-23T07:45:40.745Z,100433.65
2022-08-23T07:48:14.383Z,100466.26
2022-08-23T07:51:10.676Z,100457.59
2022-08-23T07:53:40.390Z,100459.08
2022-08-23T07:56:13.987Z,100455.66
2022-08-23T07:59:05.190Z,100454.58
2022-08-23T08:01:44.010Z,100458.52
2022-08-23T08:04:13.509Z,100457.05
2022-08-23T08:06:59.857Z,100456.30
2022-08-23T08:09:37.651Z,100458.96
2022-08-23T08:12:06.145Z,100462.82
2022-08-23T08:14:36.229Z,100463.55
2022-08-23T08:17:06.918Z,100464.76
2022-08-23T08:20:08.273Z,100466.89
2022-08-23T08:22:47.997Z,100466.66
2022-08-23T08:26:07.157Z,100470.10
2022-08-23T08:28:36.839Z,100472.23
2022-08-23T08:31:06.364Z,100475.36
2022-08-23T08:33:37.820Z,100473.58
2022-08-23T08:36:07.857Z,100469.63
2022-08-23T08:38:47.877Z,100470.64
2022-08-23T08:41:32.702Z,100472.08
2022-08-23T08:44:16.386Z,100469.36
2022-08-23T08:46:48.922Z,100469.77
2022-08-23T08:49:24.846Z,100469.58
2022-08-23T08:52:32.236Z,100471.27
2022-08-23T08:55:10.998Z,100470.02
2022-08-23T08:57:47.459Z,100471.93
2022-08-23T09:00:27.252Z,100468.67
2022-08-23T09:02:58.527Z,100470.61
2022-08-23T09:05:34.616Z,100471.60
2022-08-23T09:08:23.221Z,100473.52
2022-08-23T09:10:58.162Z,100475.42
2022-08-23T09:13:33.125Z,100469.95
2022-08-23T09:16:01.152Z,100474.58
2022-08-23T09:18:34.447Z,100473.66
2022-08-23T09:21:05.932Z,100470.39
2022-08-23T09:23:38.607Z,100469.71
2022-08-23T09:26:23.440Z,100449.88
2022-08-23T09:28:53.948Z,100468.77
2022-08-23T09:31:39.096Z,100471.59
2022-08-23T09:34:08.592Z,100462.36
2022-08-23T09:36:45.287Z,100467.75
2022-08-23T09:39:34.556Z,100472.05
2022-08-23T09:42:10.337Z,100471.56
2022-08-23T09:44:42.862Z,100448.80
2022-08-23T09:47:17.010Z,100461.97
2022-08-23T09:49:51.538Z,100460.01
2022-08-23T09:52:26.670Z,100450.59
2022-08-23T09:55:09.576Z,100461.34
2022-08-23T09:57:47.216Z,100465.48
2022-08-23T10:00:17.704Z,100463.96
2022-08-23T10:02:50.763Z,100462.10
2022-08-23T10:05:37.493Z,100471.02
2022-08-23T10:08:10.455Z,100466.48
2022-08-23T10:10:47.064Z,100463.63
2022-08-23T10:13:20.710Z,100463.80
2022-08-23T10:16:00.513Z,100463.02
2022-08-23T10:18:54.764Z,100447.84
2022-08-23T10:21:36.351Z,100443.02
2022-08-23T10:24:06.254Z,100458.16
2022-08-23T10:26:39.563Z,100459.41
2022-08-23T10:29:30.929Z,100458.73
2022-08-23T10:32:24.542Z,100456.47
2022-08-23T10:35:19.037Z,100457.71
2022-08-23T10:38:17.332Z,100444.19
2022-08-23T10:40:52.560Z,100454.08
2022-08-23T10:43:30.868Z,100452.01
2022-08-23T10:46:02.168Z,100444.54
2022-08-23T10:49:01.281Z,100447.63
2022-08-23T10:51:36.608Z,100445.61
2022-08-23T10:54:18.648Z,100443.52
2022-08-23T10:56:48.781Z,100439.14
2022-08-23T10:59:25.949Z,100436.21
2022-08-23T11:02:15.078Z,100440.60
2022-08-23T11:04:43.543Z,100424.45
2022-08-23T11:07:29.858Z,100437.12
2022-08-23T11:10:18.203Z,100431.50
2022-08-23T11:12:54.873Z,100432.29
2022-08-23T11:15:38.089Z,100431.05
2022-08-23T11:18:44.108Z,100430.93
2022-08-23T11:21:25.875Z,100426.69
2022-08-23T11:24:00.237Z,100426.92
2022-08-23T11:26:31.439Z,100411.98
2022-08-23T11:29:13.920Z,100424.20
2022-08-23T11:32:04.913Z,100419.23
2022-08-23T11:34:32.968Z,100418.70
2022-08-23T11:37:18.640Z,100422.23
2022-08-23T11:39:59.427Z,100419.84
2022-08-23T11:42:38.446Z,100414.68
2022-08-23T11:45:35.970Z,100414.29
2022-08-23T11:48:19.398Z,100413.10
2022-08-23T11:51:05.909Z,100411.81
2022-08-23T11:53:41.410Z,100412.41
2022-08-23T11:57:01.513Z,100411.78
2022-08-23T11:59:38.532Z,100407.45
2022-08-23T12:02:42.422Z,100404.02
2022-08-23T12:05:24.364Z,100404.52
2022-08-23T12:08:17.826Z,100405.52
2022-08-23T12:10:46.371Z,100401.49
2022-08-23T12:13:23.474Z,100403.30
2022-08-23T12:16:16.183Z,100404.08
2022-08-23T12:18:53.001Z,100401.05
2022-08-23T12:21:26.842Z,100402.45
2022-08-23T12:24:01.283Z,100399.85
2022-08-23T12:26:38.775Z,100396.95
2022-08-23T12:29:19.266Z,100379.20
2022-08-23T12:32:03.831Z,100393.25
2022-08-23T12:34:40.135Z,100391.46
2022-08-23T12:38:07.140Z,100388.20
2022-08-23T12:40:45.237Z,100387.95
2022-08-23T12:43:22.341Z,100387.67
2022-08-23T12:45:57.934Z,100388.70
2022-08-23T12:48:30.093Z,100387.39
2022-08-23T12:51:01.627Z,100391.03
2022-08-23T12:53:35.759Z,100392.73
2022-08-23T12:56:09.351Z,100398.27
2022-08-23T12:58:39.773Z,100400.16
2022-08-23T13:01:20.354Z,100390.80
2022-08-23T13:03:53.158Z,100395.89
2022-08-23T13:06:44.633Z,100396.06
2022-08-23T13:09:25.058Z,100372.67
2022-08-23T13:11:55.769Z,100383.91
2022-08-23T13:14:33.414Z,100374.75
2022-08-23T13:17:26.587Z,100360.28
2022-08-23T13:20:21.916Z,100351.70
2022-08-23T13:23:00.805Z,100341.62
2022-08-23T13:25:33.947Z,100331.60
2022-08-23T13:28:42.447Z,100324.69
2022-08-23T13:31:10.295Z,100323.55
2022-08-23T13:33:41.104Z,100328.84
2022-08-23T13:36:14.818Z,100332.11
2022-08-23T13:38:44.660Z,100361.70
2022-08-23T13:41:31.921Z,100361.67
2022-08-23T13:44:08.931Z,100374.48
2022-08-23T13:46:45.234Z,100392.35
2022-08-23T13:49:20.365Z,100391.20
2022-08-23T13:52:26.396Z,100386.81
2022-08-23T13:54:52.415Z,100383.06
2022-08-23T13:57:21.859Z,100367.63
2022-08-23T13:59:54.194Z,100376.00
2022-08-23T14:02:23.797Z,100373.33
2022-08-23T14:04:52.009Z,100374.23
2022-08-23T14:07:20.239Z,100366.97
2022-08-23T14:09:51.976Z,100364.39
2022-08-23T14:12:27.618Z,100365.68
2022-08-23T14:14:57.797Z,100375.84
2022-08-23T14:17:26.239Z,100385.04
2022-08-23T14:20:31.815Z,100398.49
2022-08-23T14:22:42.952Z,100417.86
2022-08-23T14:25:12.626Z,100421.65
2022-08-23T14:27:43.843Z,100431.98
2022-08-23T14:30:24.789Z,100436.45
2022-08-23T14:32:59.158Z,100434.84
2022-08-23T14:35:27.369Z,100439.42
2022-08-23T14:38:04.076Z,100442.08
2022-08-23T14:40:35.390Z,100441.91
2022-08-23T14:43:05.192Z,100446.69
2022-08-23T14:45:33.171Z,100449.85
2022-08-23T14:48:02.436Z,100452.66
2022-08-23T14:50:31.296Z,100457.34
2022-08-23T14:53:03.027Z,100463.30
2022-08-23T14:55:31.258Z,100464.93
2022-08-23T14:58:00.124Z,100454.42
2022-08-23T15:00:28.125Z,100454.23
2022-08-23T15:02:56.745Z,100453.73
2022-08-23T15:05:24.735Z,100450.98
2022-08-23T15:07:52.604Z,100451.70
2022-08-23T15:13:27.078Z,100455.23
2022-08-23T15:15:58.927Z,100464.33
2022-08-23T15:18:27.112Z,100473.48
2022-08-23T15:20:56.546Z,100477.09
2022-08-23T15:23:28.429Z,100479.11
2022-08-23T15:25:57.359Z,100479.09
2022-08-23T15:28:25.829Z,100492.37
2022-08-23T15:30:53.795Z,100483.58
2022-08-23T15:33:26.785Z,100496.02
2022-08-23T15:35:56.223Z,100499.73
2022-08-23T15:38:25.892Z,100486.02
2022-08-23T15:40:54.969Z,100490.80
2022-08-23T15:43:33.963Z,100487.27
2022-08-23T15:46:05.833Z,100484.94
2022-08-23T15:48:38.392Z,100480.06
2022-08-23T15:51:06.590Z,100484.15
2022-08-23T15:53:34.494Z,100489.14
2022-08-23T15:56:09.593Z,100498.48
2022-08-23T15:58:38.881Z,100505.23
2022-08-23T16:01:07.266Z,100512.99
2022-08-23T16:03:38.285Z,100505.79
2022-08-23T16:06:06.691Z,100502.38
2022-08-23T16:08:38.306Z,100496.88
2022-08-23T16:11:12.348Z,100491.48
2022-08-23T16:13:45.523Z,100496.30
2022-08-23T16:16:21.289Z,100486.77
2022-08-23T16:18:51.650Z,100503.09
2022-08-23T16:21:22.037Z,100508.52
2022-08-23T16:23:49.989Z,100511.67
2022-08-23T16:26:22.512Z,100515.83
2022-08-23T16:29:01.478Z,100520.14
2022-08-23T16:31:38.253Z,100532.78
2022-08-23T16:34:09.693Z,100536.25
2022-08-23T16:36:41.469Z,100541.88
2022-08-23T16:39:13.428Z,100541.91
2022-08-23T16:41:41.432Z,100533.05
2022-08-23T16:44:09.414Z,100545.04
2022-08-23T16:46:41.146Z,100555.52
2022-08-23T16:49:11.453Z,100563.01
2022-08-23T16:51:40.643Z,100564.05
2022-08-23T16:54:09.611Z,100575.69
2022-08-23T16:56:43.882Z,100584.96
2022-08-23T16:59:12.911Z,100589.65
2022-08-23T17:01:50.023Z,100598.20
2022-08-23T17:04:18.986Z,100599.81
2022-08-23T17:06:48.027Z,100596.58
2022-08-23T17:09:17.210Z,100598.20
2022-08-23T17:11:46.555Z,100601.46
2022-08-23T17:14:15.085Z,100608.30
2022-08-23T17:16:44.433Z,100612.77
2022-08-23T17:19:13.257Z,100612.98
2022-08-23T17:21:43.127Z,100614.67
2022-08-23T17:24:11.087Z,100614.27
2022-08-23T17:26:39.753Z,100616.98
2022-08-23T17:29:09.602Z,100620.77
2022-08-23T17:31:37.937Z,100621.86
2022-08-23T17:34:06.941Z,100630.33
2022-08-23T17:36:51.259Z,100632.05
2022-08-23T17:39:24.770Z,100630.96
2022-08-23T17:41:53.771Z,100632.95
2022-08-23T17:44:21.703Z,100636.40
2022-08-23T17:46:50.576Z,100637.61
2022-08-23T17:49:19.164Z,100640.36
2022-08-23T17:51:48.457Z,100639.54
2022-08-23T17:54:16.758Z,100642.67
2022-08-23T17:56:49.854Z,100645.27
2022-08-23T17:59:20.147Z,100649.23
2022-08-23T18:01:48.424Z,100648.27
2022-08-23T18:04:16.840Z,100645.08
2022-08-23T18:06:45.348Z,100641.55
2022-08-23T18:09:14.384Z,100642.70
2022-08-23T18:11:42.648Z,100649.18
2022-08-23T18:14:12.299Z,100649.97
2022-08-23T18:16:41.362Z,100654.39
2022-08-23T18:19:13.058Z,100663.95
2022-08-23T18:21:42.934Z,100665.00
2022-08-23T18:24:11.619Z,100657.27
2022-08-23T18:26:59.004Z,100671.65
2022-08-23T18:29:27.310Z,100675.48
2022-08-23T18:31:55.917Z,100678.73
2022-08-23T18:34:24.493Z,100679.48
2022-08-23T18:36:53.951Z,100676.19
2022-08-23T18:39:31.406Z,100675.73
2022-08-23T18:42:02.098Z,100673.97
2022-08-23T18:44:30.896Z,100673.95
2022-08-23T18:47:01.232Z,100675.59
2022-08-23T18:49:32.321Z,100672.66
2022-08-23T18:52:01.104Z,100669.60
2022-08-23T18:54:33.525Z,100666.42
2022-08-23T18:57:02.207Z,100661.54
2022-08-23T18:59:30.697Z,100658.61
2022-08-23T19:01:59.651Z,100640.77
2022-08-23T19:04:27.792Z,100654.95
2022-08-23T19:06:56.073Z,100650.27
2022-08-23T19:09:28.499Z,100650.42
2022-08-23T19:11:56.551Z,100652.00
2022-08-23T19:14:24.557Z,100649.88
2022-08-23T19:16:53.013Z,100648.63
2022-08-23T19:19:22.714Z,100650.41
2022-08-23T19:21:53.265Z,100641.14
2022-08-23T19:24:21.274Z,100640.61
2022-08-23T19:26:49.450Z,100641.27
2022-08-23T19:29:20.642Z,100641.00
2022-08-23T19:31:53.046Z,100642.33
2022-08-23T19:34:22.927Z,100642.05
2022-08-23T19:37:00.802Z,100642.13
2022-08-23T19:39:32.776Z,100641.34
2022-08-23T19:42:01.164Z,100642.05
2022-08-23T19:44:34.185Z,100648.70
2022-08-23T19:47:04.826Z,100647.09
2022-08-23T19:49:34.389Z,100647.21
2022-08-23T19:52:07.666Z,100651.34
2022-08-23T19:54:37.024Z,100656.19
2022-08-23T19:57:06.017Z,100654.07
2022-08-23T19:59:39.290Z,100652.04
2022-08-23T20:02:09.788Z,100653.39
2022-08-23T20:04:38.004Z,100654.91
2022-08-23T20:07:08.838Z,100656.36
2022-08-23T20:09:36.822Z,100659.97
2022-08-23T20:12:08.000Z,100660.26
2022-08-23T20:14:37.194Z,100657.30
2022-08-23T20:17:07.990Z,100659.33
2022-08-23T20:19:36.700Z,100657.11
2022-08-23T20:22:23.697Z,100658.30
2022-08-23T20:24:53.224Z,100658.04
2022-08-23T20:27:29.035Z,100653.15
2022-08-23T20:30:06.352Z,100662.63
2022-08-23T20:32:41.488Z,100663.70
2022-08-23T20:35:11.640Z,100663.22
2022-08-23T20:37:42.179Z,100658.48
2022-08-23T20:40:10.501Z,100657.00
2022-08-23T20:42:38.852Z,100653.54
2022-08-23T20:45:08.426Z,100636.77
2022-08-23T20:47:37.818Z,100618.80
2022-08-23T20:50:06.459Z,100648.65
2022-08-23T20:52:35.075Z,100654.52
2022-08-23T20:55:10.939Z,100651.27
2022-08-23T20:57:41.876Z,100651.62
2022-08-23T21:00:15.454Z,100656.25
2022-08-23T21:02:43.516Z,100649.91
2022-08-23T21:05:13.483Z,100648.30
2022-08-23T21:07:41.863Z,100648.18
2022-08-23T21:10:10.603Z,100649.59
2022-08-23T21:12:39.114Z,100648.66
2022-08-23T21:15:11.113Z,100644.83
2022-08-23T21:17:42.979Z,100639.95
2022-08-23T21:20:16.560Z,100640.62
2022-08-23T21:22:44.695Z,100638.29
2022-08-23T21:25:15.352Z,100633.48
2022-08-23T21:27:45.915Z,100636.40
2022-08-23T21:30:14.795Z,100635.71
2022-08-23T21:32:43.235Z,100640.13
2022-08-23T21:35:11.795Z,100644.41
2022-08-23T21:37:41.260Z,100640.30
2022-08-23T21:40:10.163Z,100642.71
2022-08-23T21:42:38.624Z,100644.80
2022-08-23T21:45:07.552Z,100646.45
2022-08-23T21:47:35.395Z,100648.27
2022-08-23T21:50:04.914Z,100646.23
2022-08-23T21:52:33.137Z,100653.19
2022-08-23T21:55:01.567Z,100656.65
2022-08-23T21:57:30.677Z,100652.17
2022-08-23T21:59:58.580Z,100649.68
2022-08-23T22:02:27.958Z,100650.13
2022-08-23T22:08:54.808Z,100649.27
2022-08-23T22:11:24.175Z,100651.41
2022-08-23T22:13:53.915Z,100649.44
2022-08-23T22:16:22.682Z,100646.16
2022-08-23T22:18:50.769Z,100642.48
2022-08-23T22:21:18.644Z,100639.23
2022-08-23T22:23:46.692Z,100640.40
2022-08-23T22:26:14.627Z,100638.55
2022-08-23T22:28:44.855Z,100634.57
2022-08-23T22:31:15.321Z,100628.33
2022-08-23T22:33:49.752Z,100635.56
2022-08-23T22:36:21.238Z,100633.95
2022-08-23T22:38:51.212Z,100636.11
2022-08-23T22:41:25.685Z,100641.94
2022-08-23T22:44:02.796Z,100642.65
2022-08-23T22:46:33.110Z,100645.20
2022-08-23T22:49:01.710Z,100644.43
2022-08-23T22:51:32.482Z,100630.99
2022-08-23T22:54:04.350Z,100649.91
2022-08-23T22:56:38.526Z,100651.52
2022-08-23T22:59:07.304Z,100653.91
2022-08-23T23:01:40.093Z,100658.10
2022-08-23T23:04:10.784Z,100652.33
2022-08-23T23:06:39.074Z,100636.36
2022-08-23T23:09:09.283Z,100653.91
2022-08-23T23:11:40.060Z,100655.36
2022-08-23T23:14:09.951Z,100655.05
2022-08-23T23:16:38.998Z,100658.20
2022-08-23T23:19:25.781Z,100660.79
2022-08-23T23:21:57.315Z,100657.91
2022-08-23T23:24:29.367Z,100658.23
2022-08-23T23:26:58.085Z,100657.69
2022-08-23T23:29:27.421Z,100661.23
2022-08-23T23:31:55.656Z,100664.26
2022-08-23T23:34:25.157Z,100666.61
2022-08-23T23:36:57.617Z,100668.05
2022-08-23T23:39:27.005Z,100668.23
2022-08-23T23:41:55.320Z,100669.54
2022-08-23T23:44:29.243Z,100667.91
2022-08-23T23:47:01.530Z,100669.41
2022-08-23T23:49:32.231Z,100666.46
2022-08-23T23:52:04.089Z,100667.61
2022-08-23T23:54:34.123Z,100666.13
2022-08-23T23:57:04.048Z,100670.90
2022-08-23T23:59:32.602Z,100669.05
